• Join FlightAware (Why Join?)
  • Login
  • US Flag 
02:48AM EDT


 

Airport Tracker/Info


-or-


 

Live Flight TrackerFlight Track Log ✈ SWA3932 ✈ 06-May-2013 ✈ KHOU - KLAS

Flight Track Log - Related Links

Times and Time Zones

All times are in EDT time to prevent confusion due to time zone crossing. See the SWA3932 flight status page for this flight to view local times or setup timezone preferences in your user account.

Time Position Orientation Groundspeed Altitude Reporting Facility
EDT Latitude Longitude Course Direction KTS MPH feet Rate Location/Type
07:08AM 29.6333 -95.2894 225° Southwest 215 247 900  Level Houston Center
07:09AM 29.5764 -95.3539 225° Southwest 258 297 4,300 2,100 Climbing Houston Center
07:10AM 29.5767 -95.3656 272° West 227 261 4,600 2,700 Climbing Houston Center
07:10AM 29.6078 -95.4222 302° West 258 297 7,100 2,940 Climbing Houston Center
07:11AM 29.6147 -95.4344 303° West 252 290 7,600 3,180 Climbing Houston Center
07:12AM 29.6486 -95.5014 300° West 264 304 10,700 2,460 Climbing Houston Center
07:13AM 29.6881 -95.6003 295° West 307 353 12,600 2,280 Climbing Houston Center
07:14AM 29.7292 -95.6989 296° West 333 383 15,800 2,820 Climbing Houston Center
07:15AM 29.7703 -95.8017 295° West 351 404 18,400 2,640 Climbing Houston Center
07:16AM 29.8136 -95.9097 295° West 370 426 21,200 2,640 Climbing Houston Center
07:17AM 29.8664 -96.0344 296° West 384 442 23,800 2,160 Climbing Houston Center
07:18AM 29.9125 -96.1494 295° West 396 456 25,700 1,860 Climbing Houston Center
07:19AM 29.9392 -96.2744 284° West 403 464 27,600 2,100 Climbing Houston Center
07:20AM 29.9475 -96.4072 274° West 414 476 30,000 2,280 Climbing Houston Center
07:21AM 29.9533 -96.5311 273° West 395 455 32,300 1,980 Climbing Houston Center
07:22AM 29.9742 -96.6531 281° West 389 448 34,000 1,620 Climbing Houston Center
07:23AM 29.9994 -96.7706 284° West 383 441 35,700 1,560 Climbing Houston Center
07:24AM 30.0233 -96.8867 283° West 376 433 37,200 1,080 Climbing Houston Center
07:25AM 30.0522 -97.0239 284° West 370 426 38,000 360 Climbing Houston Center
07:26AM 30.0756 -97.1400 283° West 371 427 38,000  Level Houston Center
07:27AM 30.0969 -97.2414 284° West 368 423 38,000  Level Houston Center
07:28AM 30.1214 -97.3603 283° West 373 429 38,000  Level Houston Center
07:29AM 30.1444 -97.4775 283° West 370 426 38,000  Level Houston Center
07:30AM 30.1700 -97.5964 284° West 374 430 38,000  Level Houston Center
07:31AM 30.1931 -97.7122 283° West 368 423 38,000  Level Houston Center
07:32AM 30.2164 -97.8300 283° West 371 427 38,000  Level Houston Center
07:33AM 30.2422 -97.9631 283° West 367 422 38,000  Level Houston Center
07:34AM 30.2672 -98.0792 284° West 370 426 38,000  Level Houston Center
07:35AM 30.2931 -98.1939 285° West 371 427 38,000  Level Houston Center
07:36AM 30.3208 -98.3175 285° West 374 430 38,000  Level Houston Center
07:37AM 30.3469 -98.4353 284° West 373 429 38,000  Level Houston Center
07:38AM 30.3719 -98.5531 284° West 372 428 38,000  Level Houston Center
07:39AM 30.3978 -98.6708 284° West 373 429 38,000  Level Houston Center
07:40AM 30.4239 -98.7889 284° West 374 430 38,000  Level Houston Center
07:41AM 30.4503 -98.9081 284° West 378 435 38,000  Level Houston Center
07:42AM 30.4761 -99.0269 284° West 377 434 38,000  Level Houston Center
07:43AM 30.4986 -99.1297 284° West 377 434 38,000  Level Houston Center
07:44AM 30.5242 -99.2467 284° West 376 433 38,000  Level Houston Center
07:45AM 30.5536 -99.3875 284° West 376 433 38,000  Level Houston Center
07:46AM 30.5783 -99.5033 284° West 374 430 38,000  Level Houston Center
07:47AM 30.6019 -99.6189 283° West 371 427 38,000  Level Houston Center
07:48AM 30.6278 -99.7350 285° West 372 428 38,000  Level Houston Center
07:49AM 30.6514 -99.8511 283° West 373 429 38,000  Level Houston Center
07:50AM 30.6756 -99.9667 284° West 371 427 38,000  Level Houston Center
07:51AM 30.7000 -100.0825 284° West 371 427 38,000  Level Houston Center
07:52AM 30.7236 -100.1969 284° West 370 426 38,000  Level Houston Center
07:54AM 30.7519 -100.3346 283° West  Level FlightAware Approximate
07:54AM 30.7744 -100.4508 283° West 375 432 38,000  Level Houston Center
07:55AM 30.7981 -100.5664 283° West 374 430 38,000  Level Houston Center
07:58AM 30.8458 -100.8000 283° West 370 426 38,000  Level Albuquerque Center
07:58AM 30.8683 -100.9142 283° West 368 423 38,000  Level Houston Center
08:00AM 30.8936 -101.0402 283° West  Level FlightAware Approximate
08:01AM 30.9122 -101.1411 283° West 364 419 38,000  Level Houston Center
08:02AM 30.9367 -101.2503 285° West 355 409 38,000  Level Houston Center
08:03AM 30.9625 -101.3900 282° West 356 410 38,000  Level Albuquerque Center
08:05AM 31.0064 -101.6169 283° West 359 413 38,000  Level Albuquerque Center
08:06AM 31.0283 -101.7317 283° West 362 417 38,000  Level Albuquerque Center
08:07AM 31.0506 -101.8475 283° West 365 420 38,000  Level Albuquerque Center
08:09AM 31.0953 -102.0850 282° West 375 432 38,000  Level Houston Center
08:10AM 31.1189 -102.2053 283° West 375 432 38,000  Level Houston Center
08:11AM 31.1389 -102.3267 281° West 372 428 38,000  Level Houston Center
08:12AM 31.1617 -102.4492 282° West 374 430 38,000  Level Houston Center
08:13AM 31.1847 -102.5692 283° West 371 427 38,000  Level Albuquerque Center
08:14AM 31.2069 -102.6869 282° West 369 425 38,000  Level Albuquerque Center
08:15AM 31.2289 -102.8050 282° West 370 426 38,000  Level Albuquerque Center
08:16AM 31.2503 -102.9236 282° West 373 429 38,000  Level Albuquerque Center
08:17AM 31.2714 -103.0428 282° West 375 432 38,000  Level Albuquerque Center
08:19AM 31.3203 -103.3061 282° West 374 430 38,000  Level Houston Center
08:21AM 31.3549 -103.5024 282° West  Level FlightAware Approximate
08:22AM 31.3778 -103.6406 282° West 376 433 38,000  Level Albuquerque Center
08:23AM 31.3972 -103.7606 281° West 375 432 38,000  Level Albuquerque Center
08:24AM 31.4175 -103.8656 283° West 382 440 38,000  Level Albuquerque Center
08:25AM 31.4431 -104.0097 282° West 379 436 38,000  Level Albuquerque Center
08:27AM 31.4850 -104.2528 282° West 382 440 38,000  Level Albuquerque Center
08:28AM 31.5050 -104.3756 281° West 385 443 38,000  Level Albuquerque Center
08:29AM 31.5258 -104.4981 281° West 386 444 38,000  Level Albuquerque Center
08:31AM 31.5692 -104.7442 282° West 388 447 38,000  Level Albuquerque Center
08:33AM 31.6097 -104.9911 281° West 388 447 38,000  Level Albuquerque Center
08:34AM 31.6300 -105.1144 281° West 387 445 38,000  Level Albuquerque Center
08:35AM 31.6506 -105.2381 281° West 388 447 38,000  Level Albuquerque Center
08:36AM 31.6706 -105.3650 281° West 395 455 38,000  Level Albuquerque Center
08:37AM 31.7125 -105.4806 293° West 391 450 38,000  Level Albuquerque Center
08:38AM 31.7586 -105.5942 296° West 388 447 38,000  Level Albuquerque Center
08:39AM 31.8047 -105.7069 296° West 385 443 38,000  Level Albuquerque Center
08:40AM 31.8517 -105.8200 296° West 385 443 38,000  Level Albuquerque Center
08:41AM 31.9019 -105.9472 295° West 386 444 38,000  Level Albuquerque Center
08:42AM 31.9494 -106.0617 296° West 388 447 38,000  Level Albuquerque Center
08:43AM 31.9958 -106.1756 296° West 387 445 38,000  Level Albuquerque Center
08:44AM 32.0419 -106.2908 295° West 389 448 38,000  Level Albuquerque Center
08:45AM 32.0883 -106.4064 295° West 392 451 38,000  Level Albuquerque Center
08:46AM 32.1356 -106.5261 295° West 393 452 38,000 -60 Level Albuquerque Center
08:47AM 32.1817 -106.6386 296° West 393 452 37,900  Descending Albuquerque Center
08:49AM 32.2831 -106.8928 295° West 395 455 38,000  Climbing Albuquerque Center
08:51AM 32.3897 -107.0384 311° West  Level FlightAware Approximate
08:54AM 32.6536 -107.3975 313° West 407 468 38,000  Level Albuquerque Center
08:56AM 32.7330 -107.5591 300° West  Level Estimated
08:57AM 32.8758 -107.6978 300° West 410 472 38,000  Level Albuquerque Center
08:58AM 32.8742 -107.7074 311° West  Level FlightAware Approximate
08:58AM 32.9508 -107.7986 312° West 408 470 38,000  Level Albuquerque Center
08:59AM 32.9445 -107.8021 313° West  Level FlightAware Approximate
08:59AM 33.0269 -107.9031 311° West 414 476 38,000  Level Albuquerque Center
09:00AM 33.1019 -108.0086 310° West 417 480 38,000  Level Albuquerque Center
09:02AM 33.2079 -108.1391 314° West  Level FlightAware Approximate
09:03AM 33.1047 -108.3256 300° West  Level Estimated
09:03AM 33.3422 -108.3336 314° West 413 475 38,000  Level Albuquerque Center
09:05AM 33.4391 -108.4686 311° West  Level FlightAware Approximate
09:07AM 33.6411 -108.7483 310° West 417 480 38,000  Level Albuquerque Center
09:09AM 33.7062 -108.9041 297° West  Level Estimated
09:11AM 33.9583 -109.1947 296° West 420 483 38,000  Level Albuquerque Center
09:12AM 33.9214 -109.1480 310° West  Level FlightAware Approximate
09:12AM 34.0333 -109.3031 310° West 422 486 38,000  Level Albuquerque Center
09:13AM 33.9901 -109.2456 310° West  Level FlightAware Approximate
09:13AM 34.1106 -109.4100 311° West 424 488 38,000  Level Albuquerque Center
09:14AM 34.1814 -109.5114 310° West 427 491 38,000  Level Albuquerque Center
09:15AM 34.2672 -109.6347 310° West 429 494 38,000  Level Albuquerque Center
09:16AM 34.0366 -109.7058 297° West  Level Estimated
09:16AM 34.3414 -109.7408 310° West 429 494 38,000  Level Albuquerque Center
09:17AM 34.0834 -109.8209 296° West  Level Estimated
09:18AM 34.4986 -109.9689 310° West 424 488 38,000  Level Albuquerque Center
09:19AM 34.5711 -110.0731 310° West 421 484 38,000  Level Albuquerque Center
09:20AM 34.6453 -110.1825 309° West 431 496 38,000  Level Albuquerque Center
09:21AM 34.7306 -110.3056 310° West 429 494 38,000  Level Albuquerque Center
09:22AM 34.8008 -110.4094 309° West 422 486 38,000  Level Albuquerque Center
09:23AM 34.8689 -110.5164 308° West 423 487 38,000  Level Albuquerque Center
09:24AM 34.9114 -110.6608 290° West 417 480 38,000  Level Albuquerque Center
09:25AM 34.9428 -110.7964 286° West 409 471 38,000  Level Albuquerque Center
09:28AM 35.0267 -111.1189 288° West 415 478 38,000  Level Los Angeles Center
09:28AM 35.0469 -111.2003 287° West 423 487 38,000 -240 Level Albuquerque Center
09:29AM 35.0817 -111.3333 288° West 417 480 37,700 -1,680 Descending Albuquerque Center
09:31AM 35.1492 -111.5975 287° West 409 471 32,900 -2,280 Descending Albuquerque Center
09:32AM 35.1803 -111.7247 287° West 399 459 30,800 -960 Descending Albuquerque Center
09:35AM 35.2461 -111.9819 287° West 384 442 30,000 -300 Descending Albuquerque Center
09:36AM 35.2783 -112.1114 287° West 395 455 30,000  Level Albuquerque Center
09:37AM 35.3094 -112.2414 286° West 399 459 30,000  Level Albuquerque Center
09:38AM 35.3419 -112.3703 287° West 399 459 30,000  Level Albuquerque Center
09:39AM 35.3742 -112.5017 287° West 403 464 30,000  Level Albuquerque Center
09:39AM 35.3936 -112.5800 287° West 404 465 30,000  Level Los Angeles Center
09:40AM 35.4294 -112.7228 287° West 404 465 30,000  Level Los Angeles Center
09:41AM 35.4622 -112.8583 287° West 412 474 30,000  Level Los Angeles Center
09:43AM 35.5069 -113.0481 286° West 410 472 30,000  Level Albuquerque Center
09:43AM 35.5272 -113.1303 287° West 403 464 30,000 -960 Level Los Angeles Center
09:45AM 35.5928 -113.4089 286° West 380 437 27,500 -1,380 Descending Los Angeles Center
09:46AM 35.6211 -113.5300 286° West 373 429 25,500 -1,920 Descending Los Angeles Center
09:47AM 35.6400 -113.6494 281° West 362 417 23,600 -1,860 Descending Los Angeles Center
09:48AM 35.6578 -113.7744 280° West 368 423 21,800 -2,220 Descending Los Angeles Center
09:50AM 35.6659 -113.9109 280° West  Level FlightAware Approximate
09:52AM 35.7139 -114.1697 282° West 355 409 14,700  Level Los Angeles Center
09:52AM 35.7217 -114.2053 285° West 355 409 14,000 -1,860 Descending Los Angeles Center
09:53AM 35.7264 -114.2714 275° West 347 399 12,800 -1,500 Descending Los Angeles Center
09:53AM 35.7383 -114.3456 281° West 339 390 12,200 -900 Descending Los Angeles Center
09:54AM 35.7600 -114.3947 299° West 331 381 11,900 -240 Descending Los Angeles Center
09:54AM 35.7833 -114.4392 303° West 329 379 12,000 -180 Climbing Los Angeles Center
09:55AM 35.8250 -114.5289 300° West 327 376 11,700 -1,020 Descending Los Angeles Center
09:56AM 35.8778 -114.6306 303° West 329 379 10,000 -1,500 Descending Los Angeles Center
09:57AM 36.0390 -114.5506 282° West  Level FlightAware Approximate
09:57AM 35.9019 -114.6783 302° West 316 364 9,200  Level Los Angeles Center
09:59AM 35.9936 -114.8603 302° West 276 318 6,400 -1,020 Descending Los Angeles Center
10:01AM 36.0596 -115.0830 270° West  Level Estimated
10:02AM 36.0736 -115.0161 270° West 193 222 3,900  Level Los Angeles Center
10:03AM 36.0728 -115.0736 269° West 141 162 2,900 -1,320 Descending Los Angeles Center
10:05AM 36.0667 -115.1500 270° West  Level FlightAware Approximate
10:12AM 36.0801 -115.1523 270° West  Level Estimated
10:13AM 36.0801 -115.1523 270° West  Level Estimated